Terminal Aerodrome Forecast
Issued by NWS

Home | Current Version | Previous Version | Text Only | Print | Product List | Glossary On
Versions: 1 2 3 4 5 6 7 8 9 10 11 12 13 14 15 16 17 18 19 20 21 22 23 24 25 26
796
FTUS43 KIND 031309 AAA
TAFHUF
TAF AMD
KHUF 031309Z 0313/0412 33005KT P6SM SCT010 OVC050
      TEMPO 0315/0316 BKN025
     FM031600 32005KT P6SM BKN040
     FM032100 24005KT P6SM BKN060
     FM041100 22008KT 5SM -SHRA OVC025=

USA.gov is the U.S. government's official web portal to all federal, state and local government web resources and services.